TimeAKST,TemperatureF,Dew PointF,Humidity,Sea Level PressureIn,VisibilityMPH,Wind Direction,Wind SpeedMPH,Gust SpeedMPH,PrecipitationIn,Events,Conditions,WindDirDegrees,DateUTC
12:53 AM,39.9,37.9,93,29.90,9.0,SE,6.9,-,0.02,Rain,Light Rain,140,2013-01-04 09:53:00
1:16 AM,39.2,37.4,93,29.90,8.0,SE,8.1,-,0.01,Rain,Light Rain,130,2013-01-04 10:16:00
1:53 AM,39.0,37.0,93,29.93,10.0,SE,4.6,-,0.01,,Overcast,130,2013-01-04 10:53:00
3:53 AM,39.0,37.0,93,29.96,10.0,SE,5.8,-,N/A,,Overcast,130,2013-01-04 12:53:00
4:53 AM,39.0,36.0,89,29.99,10.0,SSE,3.5,-,N/A,,Mostly Cloudy,150,2013-01-04 13:53:00
5:44 AM,39.2,37.4,93,29.99,10.0,SE,3.5,-,N/A,,Overcast,140,2013-01-04 14:44:00
5:53 AM,37.9,37.0,97,30.00,10.0,Calm,Calm,-,N/A,,Overcast,0,2013-01-04 14:53:00
6:42 AM,37.4,35.6,93,30.01,10.0,SE,3.5,-,N/A,,Mostly Cloudy,130,2013-01-04 15:42:00
6:53 AM,37.9,37.0,97,30.02,10.0,SE,3.5,-,N/A,,Overcast,130,2013-01-04 15:53:00
7:53 AM,39.9,37.0,89,30.05,10.0,SE,4.6,-,N/A,,Overcast,140,2013-01-04 16:53:00
8:18 AM,39.2,37.4,93,30.06,10.0,SE,5.8,-,N/A,,Overcast,130,2013-01-04 17:18:00
8:29 AM,39.2,37.4,93,30.07,10.0,SE,6.9,-,N/A,,Overcast,130,2013-01-04 17:29:00
8:53 AM,39.9,37.9,93,30.08,10.0,ESE,8.1,-,N/A,,Overcast,120,2013-01-04 17:53:00
9:03 AM,39.2,37.4,93,30.08,10.0,ESE,6.9,-,N/A,,Overcast,120,2013-01-04 18:03:00
9:53 AM,42.1,37.9,85,30.09,10.0,ESE,6.9,-,N/A,,Mostly Cloudy,110,2013-01-04 18:53:00
10:01 AM,42.8,37.4,81,30.09,10.0,ESE,6.9,-,N/A,,Scattered Clouds,110,2013-01-04 19:01:00
10:53 AM,43.0,37.9,82,30.09,10.0,ESE,8.1,-,N/A,,Mostly Cloudy,110,2013-01-04 19:53:00
11:53 AM,43.0,37.9,82,30.09,10.0,ESE,9.2,-,0.00,,Overcast,120,2013-01-04 20:53:00
12:22 PM,42.8,37.4,81,30.08,10.0,ESE,11.5,20.7,0.00,Rain,Light Rain,120,2013-01-04 21:22:00
12:43 PM,42.8,37.4,81,30.07,10.0,ESE,10.4,18.4,0.00,,Overcast,120,2013-01-04 21:43:00
12:53 PM,43.0,37.0,80,30.07,10.0,ESE,10.4,17.3,0.00,,Overcast,110,2013-01-04 21:53:00
1:24 PM,42.8,35.6,76,30.06,10.0,East,11.5,17.3,N/A,,Overcast,100,2013-01-04 22:24:00
1:53 PM,43.0,36.0,76,30.06,10.0,ESE,10.4,17.3,N/A,,Overcast,120,2013-01-04 22:53:00
2:53 PM,45.0,34.0,65,30.05,10.0,ESE,10.4,17.3,N/A,,Overcast,110,2013-01-04 23:53:00
3:53 PM,44.1,35.1,71,30.05,10.0,ESE,10.4,17.3,0.00,Rain,Light Rain,110,2013-01-05 00:53:00
5:53 PM,45.0,32.0,60,30.01,10.0,ESE,8.1,-,N/A,,Overcast,120,2013-01-05 02:53:00
6:53 PM,45.0,30.9,58,29.99,10.0,ESE,8.1,-,N/A,,Mostly Cloudy,110,2013-01-05 03:53:00
7:53 PM,46.0,30.0,54,29.96,10.0,East,9.2,17.3,N/A,,Mostly Cloudy,100,2013-01-05 04:53:00
8:53 PM,46.9,28.0,48,29.94,10.0,ESE,10.4,20.7,N/A,,Overcast,110,2013-01-05 05:53:00
9:53 PM,46.9,27.0,46,29.92,10.0,ESE,11.5,20.7,N/A,,Overcast,120,2013-01-05 06:53:00
10:53 PM,46.0,30.0,54,29.92,10.0,SE,20.7,27.6,0.00,Rain,Light Rain,130,2013-01-05 07:53:00
11:53 PM,45.0,32.0,60,29.91,10.0,SE,19.6,26.5,0.00,Rain,Light Rain,130,2013-01-05 08:53:00